createdAt,value
2019-04-05T00:00:43.436Z,12.63
2019-04-05T00:03:15.239Z,11.60
2019-04-05T00:05:46.142Z,13.13
2019-04-05T00:08:17.216Z,12.60
2019-04-05T00:10:48.242Z,12.67
2019-04-05T00:13:18.658Z,13.00
2019-04-05T00:15:49.288Z,11.43
2019-04-05T00:18:21.394Z,12.80
2019-04-05T00:20:56.015Z,12.47
2019-04-05T00:23:26.440Z,11.83
2019-04-05T00:25:57.635Z,11.93
2019-04-05T00:28:30.329Z,12.87
2019-04-05T00:31:00.832Z,12.00
2019-04-05T00:33:33.420Z,13.20
2019-04-05T00:36:06.419Z,12.00
2019-04-05T00:38:36.875Z,13.10
2019-04-05T00:41:09.347Z,13.60
2019-04-05T00:43:41.386Z,12.50
2019-04-05T00:46:12.478Z,13.40
2019-04-05T00:48:45.475Z,12.77
2019-04-05T00:51:19.952Z,12.40
2019-04-05T00:53:51.511Z,12.53
2019-04-05T00:56:24.375Z,12.20
2019-04-05T00:58:58.397Z,12.90
2019-04-05T01:01:30.364Z,12.20
2019-04-05T01:04:03.467Z,13.00
2019-04-05T01:06:36.303Z,11.47
2019-04-05T01:09:08.172Z,12.53
2019-04-05T01:11:39.568Z,13.30
2019-04-05T01:14:12.646Z,11.93
2019-04-05T01:16:45.619Z,11.97
2019-04-05T01:19:16.515Z,13.97
2019-04-05T01:21:49.649Z,13.30
2019-04-05T01:24:22.592Z,13.03
2019-04-05T01:26:56.138Z,12.53
2019-04-05T01:29:27.640Z,12.87
2019-04-05T01:31:58.509Z,13.37
2019-04-05T01:34:31.537Z,13.10
2019-04-05T01:37:02.586Z,13.67
2019-04-05T01:39:33.700Z,13.60
2019-04-05T01:42:04.722Z,12.80
2019-04-05T01:44:37.065Z,13.80
2019-04-05T01:47:09.567Z,12.87
2019-04-05T01:49:41.870Z,13.10
2019-04-05T01:52:13.616Z,12.67
2019-04-05T01:54:45.591Z,13.37
2019-04-05T01:57:18.764Z,13.40
2019-04-05T01:59:51.785Z,14.03
2019-04-05T02:02:24.773Z,13.57
2019-04-05T02:04:57.749Z,13.90
2019-04-05T02:07:30.805Z,14.37
2019-04-05T02:10:02.043Z,15.30
2019-04-05T02:12:33.842Z,15.70
2019-04-05T02:15:07.534Z,14.47
2019-04-05T02:17:41.339Z,15.40
2019-04-05T02:20:13.128Z,14.77
2019-04-05T02:22:45.783Z,15.43
2019-04-05T02:25:18.835Z,14.70
2019-04-05T02:27:50.891Z,14.70
2019-04-05T02:30:21.994Z,15.33
2019-04-05T02:32:54.897Z,14.87
2019-04-05T02:35:27.881Z,14.93
2019-04-05T02:38:01.079Z,14.50
2019-04-05T02:40:35.535Z,15.00
2019-04-05T02:43:08.414Z,14.70
2019-04-05T02:45:40.732Z,16.23
2019-04-05T02:48:14.388Z,15.30
2019-04-05T02:50:48.558Z,15.10
2019-04-05T02:53:20.440Z,15.73
2019-04-05T02:55:52.215Z,15.10
2019-04-05T02:58:23.136Z,15.07
2019-04-05T03:00:55.191Z,16.00
2019-04-05T03:03:26.123Z,15.27
2019-04-05T03:05:58.184Z,14.07
2019-04-05T03:08:31.101Z,15.30
2019-04-05T03:11:09.165Z,14.87
2019-04-05T03:13:45.118Z,15.23
2019-04-05T03:16:19.415Z,14.60
2019-04-05T03:18:55.754Z,14.10
2019-04-05T03:21:29.633Z,13.67
2019-04-05T03:24:04.230Z,14.10
2019-04-05T03:26:39.450Z,14.93
2019-04-05T03:29:10.992Z,14.30
2019-04-05T03:31:43.195Z,14.80
2019-04-05T03:34:17.433Z,12.30
2019-04-05T03:36:51.619Z,13.40
2019-04-05T03:39:21.230Z,13.30
2019-04-05T03:41:52.793Z,14.30
2019-04-05T03:44:25.055Z,13.07
2019-04-05T03:46:58.026Z,13.97
2019-04-05T03:49:31.375Z,13.87
2019-04-05T03:52:05.311Z,14.53
2019-04-05T03:54:37.095Z,14.07
2019-04-05T03:57:10.453Z,14.17
2019-04-05T03:59:43.291Z,13.80
2019-04-05T04:02:16.672Z,13.27
2019-04-05T04:04:50.923Z,14.27
2019-04-05T04:07:22.405Z,13.60
2019-04-05T04:09:55.257Z,13.87
2019-04-05T04:12:28.510Z,14.60
2019-04-05T04:15:13.953Z,14.10
2019-04-05T04:17:48.342Z,14.37
2019-04-05T04:20:36.708Z,15.47
2019-04-05T04:23:08.566Z,14.70
2019-04-05T04:25:40.861Z,14.40
2019-04-05T04:28:13.338Z,14.77
2019-04-05T04:30:46.484Z,14.23
2019-04-05T04:33:21.141Z,14.63
2019-04-05T04:35:53.919Z,15.60
2019-04-05T04:38:27.223Z,16.33
2019-04-05T04:41:00.610Z,15.40
2019-04-05T04:43:31.453Z,15.80
2019-04-05T04:46:04.535Z,16.00
2019-04-05T04:48:36.861Z,15.13
2019-04-05T04:51:09.407Z,15.20
2019-04-05T04:53:40.765Z,15.20
2019-04-05T04:56:13.430Z,15.13
2019-04-05T04:58:46.708Z,15.40
2019-04-05T05:01:20.331Z,15.67
2019-04-05T05:03:51.700Z,15.37
2019-04-05T05:06:23.485Z,15.40
2019-04-05T05:08:55.591Z,17.50
2019-04-05T05:11:28.590Z,16.37
2019-04-05T05:13:59.550Z,15.60
2019-04-05T05:16:32.692Z,17.53
2019-04-05T05:19:03.673Z,15.93
2019-04-05T05:21:34.706Z,16.40
2019-04-05T05:24:06.128Z,16.37
2019-04-05T05:26:36.796Z,15.27
2019-04-05T05:29:09.900Z,17.00
2019-04-05T05:31:42.863Z,16.00
2019-04-05T05:34:17.594Z,16.17
2019-04-05T05:36:48.898Z,15.63
2019-04-05T05:39:20.371Z,16.03
2019-04-05T05:41:51.747Z,15.63
2019-04-05T05:44:24.644Z,15.40
2019-04-05T05:46:57.829Z,15.00
2019-04-05T05:49:30.741Z,16.20
2019-04-05T05:52:04.417Z,15.20
2019-04-05T05:54:34.805Z,15.23
2019-04-05T05:57:06.692Z,16.00
2019-04-05T05:59:37.124Z,16.47
2019-04-05T06:02:09.909Z,15.53
2019-04-05T06:04:42.946Z,14.57
2019-04-05T06:07:14.894Z,14.37
2019-04-05T06:09:47.817Z,14.60
2019-04-05T06:12:19.822Z,16.30
2019-04-05T06:14:51.904Z,15.07
2019-04-05T06:17:22.976Z,14.43
2019-04-05T06:19:55.839Z,15.87
2019-04-05T06:22:26.229Z,16.50
2019-04-05T06:24:57.985Z,14.43
2019-04-05T06:27:28.830Z,14.50
2019-04-05T06:30:00.990Z,15.40
2019-04-05T06:32:33.281Z,15.60
2019-04-05T06:35:03.941Z,14.53
2019-04-05T06:37:35.044Z,15.50
2019-04-05T06:40:07.127Z,13.87
2019-04-05T06:42:37.518Z,15.40
2019-04-05T06:45:10.053Z,15.80
2019-04-05T06:47:43.169Z,14.37
2019-04-05T06:50:14.427Z,15.40
2019-04-05T06:52:46.135Z,14.83
2019-04-05T06:55:16.940Z,16.03
2019-04-05T06:57:49.154Z,15.63
2019-04-05T07:00:28.373Z,14.23
2019-04-05T07:03:01.137Z,15.20
2019-04-05T07:05:32.156Z,13.87
2019-04-05T07:08:04.072Z,14.70
2019-04-05T07:10:35.235Z,15.43
2019-04-05T07:13:07.349Z,15.50
2019-04-05T07:15:37.699Z,14.70
2019-04-05T07:18:08.172Z,14.93
2019-04-05T07:20:40.142Z,14.40
2019-04-05T07:23:13.292Z,14.60
2019-04-05T07:25:46.120Z,14.80
2019-04-05T07:28:17.189Z,14.77
2019-04-05T07:30:49.113Z,13.90
2019-04-05T07:33:20.221Z,14.27
2019-04-05T07:35:50.582Z,14.57
2019-04-05T07:38:22.326Z,14.80
2019-04-05T07:40:55.260Z,15.13
2019-04-05T07:43:26.187Z,14.83
2019-04-05T07:45:58.250Z,15.10
2019-04-05T07:48:43.746Z,15.17
2019-04-05T07:51:06.342Z,15.43
2019-04-05T07:53:36.924Z,14.07
2019-04-05T07:56:07.371Z,14.70
2019-04-05T07:58:39.404Z,15.03
2019-04-05T08:01:11.813Z,14.53
2019-04-05T08:03:43.582Z,14.80
2019-04-05T08:06:16.924Z,14.30
2019-04-05T08:09:08.047Z,15.37
2019-04-05T08:11:43.336Z,14.60
2019-04-05T08:14:18.199Z,15.20
2019-04-05T08:16:49.518Z,14.53
2019-04-05T08:19:21.322Z,14.87
2019-04-05T08:21:52.428Z,14.77
2019-04-05T08:24:23.525Z,14.53
2019-04-05T08:26:55.548Z,15.07
2019-04-05T08:29:28.535Z,14.67
2019-04-05T08:32:13.642Z,15.00
2019-04-05T08:34:33.536Z,13.90
2019-04-05T08:37:04.552Z,14.50
2019-04-05T08:39:36.940Z,13.77
2019-04-05T08:42:10.829Z,14.47
2019-04-05T08:44:43.532Z,13.30
2019-04-05T08:47:15.498Z,15.67
2019-04-05T08:49:46.571Z,14.70
2019-04-05T08:52:19.512Z,13.57
2019-04-05T08:54:50.815Z,14.47
2019-04-05T08:57:22.648Z,15.93
2019-04-05T08:59:53.725Z,14.47
2019-04-05T09:02:25.656Z,14.13
2019-04-05T09:04:58.634Z,14.40
2019-04-05T09:07:31.937Z,14.83
2019-04-05T09:10:04.696Z,14.00
2019-04-05T09:12:36.959Z,13.80
2019-04-05T09:15:07.708Z,15.37
2019-04-05T09:17:40.727Z,13.57
2019-04-05T09:20:13.798Z,12.50
2019-04-05T09:22:45.949Z,14.67
2019-04-05T09:25:19.622Z,13.90
2019-04-05T09:27:49.808Z,13.67
2019-04-05T09:30:23.398Z,13.50
2019-04-05T09:32:55.770Z,13.70
2019-04-05T09:35:26.679Z,13.60
2019-04-05T09:37:57.804Z,13.60
2019-04-05T09:40:30.831Z,13.10
2019-04-05T09:43:02.766Z,12.87
2019-04-05T09:45:33.808Z,14.30
2019-04-05T09:48:05.998Z,13.60
2019-04-05T09:50:36.978Z,12.17
2019-04-05T09:53:08.924Z,13.47
2019-04-05T09:55:40.861Z,11.53
2019-04-05T09:58:14.011Z,12.20
2019-04-05T10:00:44.896Z,11.80
2019-04-05T10:03:17.163Z,13.10
2019-04-05T10:05:50.041Z,12.80
2019-04-05T10:08:21.930Z,13.23
2019-04-05T10:10:53.990Z,13.23
2019-04-05T10:13:24.973Z,11.40
2019-04-05T10:15:55.982Z,11.73
2019-04-05T10:18:28.145Z,11.37
2019-04-05T10:20:58.906Z,12.00
2019-04-05T10:23:30.219Z,11.47
2019-04-05T10:26:01.098Z,11.57
2019-04-05T10:28:33.957Z,13.07
2019-04-05T10:31:06.237Z,12.40
2019-04-05T10:33:36.996Z,12.70
2019-04-05T10:36:10.801Z,10.57
2019-04-05T10:38:44.751Z,13.03
2019-04-05T10:41:16.099Z,11.00
2019-04-05T10:43:49.094Z,11.23
2019-04-05T10:46:22.091Z,11.53
2019-04-05T10:48:55.054Z,11.40
2019-04-05T10:51:26.137Z,11.03
2019-04-05T10:53:58.155Z,10.57
2019-04-05T10:56:32.827Z,11.07
2019-04-05T10:59:05.277Z,10.60
2019-04-05T11:01:37.108Z,10.93
2019-04-05T11:04:08.125Z,11.97
2019-04-05T11:06:40.187Z,10.80
2019-04-05T11:09:13.299Z,9.60
2019-04-05T11:11:46.214Z,9.90
2019-04-05T11:14:19.146Z,10.37
2019-04-05T11:16:58.308Z,10.17
2019-04-05T11:19:25.283Z,9.60
2019-04-05T11:21:59.963Z,11.00
2019-04-05T11:24:31.167Z,9.50
2019-04-05T11:27:06.707Z,9.07
2019-04-05T11:29:37.055Z,8.67
2019-04-05T11:32:07.463Z,9.57
2019-04-05T11:34:37.822Z,10.33
2019-04-05T11:37:10.518Z,9.20
2019-04-05T11:39:43.230Z,9.43
2019-04-05T11:42:17.149Z,9.33
2019-04-05T11:44:51.638Z,8.57
2019-04-05T11:47:25.572Z,8.90
2019-04-05T11:49:58.884Z,9.10
2019-04-05T11:52:29.368Z,9.60
2019-04-05T11:55:04.478Z,8.93
2019-04-05T11:57:34.476Z,9.70
2019-04-05T12:00:12.794Z,9.00
2019-04-05T12:02:49.875Z,8.70
2019-04-05T12:05:22.555Z,9.63
2019-04-05T12:08:00.592Z,8.60
2019-04-05T12:10:32.105Z,8.90
2019-04-05T12:13:04.491Z,9.07
2019-04-05T12:15:36.525Z,9.00
2019-04-05T12:18:09.948Z,8.83
2019-04-05T12:20:49.107Z,9.30
2019-04-05T12:23:14.486Z,9.23
2019-04-05T12:25:47.449Z,8.20
2019-04-05T12:28:19.608Z,8.13
2019-04-05T12:30:51.528Z,8.73
2019-04-05T12:33:22.579Z,8.70
2019-04-05T12:35:56.665Z,8.00
2019-04-05T12:38:33.303Z,8.07
2019-04-05T12:41:05.418Z,9.40
2019-04-05T12:43:37.969Z,9.23
2019-04-05T12:46:15.115Z,7.80
2019-04-05T12:48:46.390Z,8.40
2019-04-05T12:51:16.650Z,9.57
2019-04-05T12:53:51.365Z,8.53
2019-04-05T12:56:24.400Z,9.03
2019-04-05T12:58:56.608Z,8.47
2019-04-05T13:01:28.562Z,9.13
2019-04-05T13:04:01.672Z,9.13
2019-04-05T13:06:34.774Z,8.83
2019-04-05T13:09:08.875Z,10.10
2019-04-05T13:11:40.722Z,10.33
2019-04-05T13:14:11.269Z,10.00
2019-04-05T13:16:43.624Z,9.87
2019-04-05T13:19:14.686Z,9.43
2019-04-05T13:21:46.743Z,9.87
2019-04-05T13:24:17.786Z,9.63
2019-04-05T13:26:49.811Z,9.93
2019-04-05T13:29:22.981Z,8.63
2019-04-05T13:31:53.761Z,10.60
2019-04-05T13:34:26.590Z,9.77
2019-04-05T13:36:59.290Z,9.80
2019-04-05T13:39:31.854Z,9.67
2019-04-05T13:42:05.155Z,8.83
2019-04-05T13:44:35.995Z,8.37
2019-04-05T13:47:08.471Z,8.73
2019-04-05T13:49:41.464Z,8.37
2019-04-05T13:52:13.972Z,8.60
2019-04-05T13:54:46.984Z,8.77
2019-04-05T13:57:17.806Z,9.90
2019-04-05T13:59:49.996Z,10.07
2019-04-05T14:02:22.021Z,10.87
2019-04-05T14:04:54.491Z,10.50
2019-04-05T14:07:25.352Z,10.90
2019-04-05T14:09:55.990Z,11.00
2019-04-05T14:12:26.941Z,12.23
2019-04-05T14:14:59.038Z,14.53
2019-04-05T14:17:30.033Z,13.23
2019-04-05T14:20:03.811Z,13.83
2019-04-05T14:22:34.974Z,13.27
2019-04-05T14:25:06.137Z,13.33
2019-04-05T14:27:37.300Z,12.87
2019-04-05T14:30:10.243Z,14.53
2019-04-05T14:32:41.131Z,14.70
2019-04-05T14:35:12.520Z,13.43
2019-04-05T14:37:44.177Z,13.90
2019-04-05T14:40:15.320Z,15.43
2019-04-05T14:42:47.110Z,13.47
2019-04-05T14:45:19.282Z,15.10
2019-04-05T14:47:50.132Z,14.57
2019-04-05T14:50:25.058Z,13.50
2019-04-05T14:52:56.212Z,15.27
2019-04-05T14:55:29.959Z,15.30
2019-04-05T14:58:06.022Z,14.83
2019-04-05T15:00:37.386Z,15.57
2019-04-05T15:03:08.228Z,16.13
2019-04-05T15:05:41.180Z,15.10
2019-04-05T15:08:14.364Z,15.07
2019-04-05T15:10:44.835Z,14.17
2019-04-05T15:13:19.106Z,16.87
2019-04-05T15:15:55.871Z,15.03
2019-04-05T15:18:28.328Z,16.50
2019-04-05T15:20:58.785Z,16.13
2019-04-05T15:23:31.325Z,15.20
2019-04-05T15:26:02.465Z,14.93
2019-04-05T15:28:35.327Z,15.13
2019-04-05T15:31:06.352Z,14.97
2019-04-05T15:33:37.316Z,15.03
2019-04-05T15:36:10.494Z,17.30
2019-04-05T15:38:43.607Z,15.90
2019-04-05T15:41:15.444Z,19.67
2019-04-05T15:43:46.348Z,18.90
2019-04-05T15:46:16.779Z,18.93
2019-04-05T15:48:49.658Z,19.00
2019-04-05T15:51:24.878Z,19.50
2019-04-05T15:53:55.536Z,19.93
2019-04-05T15:56:26.475Z,18.27
2019-04-05T15:58:58.528Z,17.70
2019-04-05T16:01:29.475Z,20.13
2019-04-05T16:04:02.744Z,18.53
2019-04-05T16:06:35.533Z,17.47
2019-04-05T16:09:09.153Z,18.60
2019-04-05T16:11:42.226Z,17.90
2019-04-05T16:14:13.561Z,20.87
2019-04-05T16:16:46.558Z,18.60
2019-04-05T16:19:19.652Z,19.57
2019-04-05T16:21:52.651Z,17.90
2019-04-05T16:24:23.283Z,18.23
2019-04-05T16:26:55.581Z,18.10
2019-04-05T16:29:28.605Z,18.23
2019-04-05T16:31:59.674Z,19.47
2019-04-05T16:34:31.612Z,17.17
2019-04-05T16:37:04.846Z,18.50
2019-04-05T16:39:35.884Z,19.20
2019-04-05T16:42:10.129Z,18.73
2019-04-05T16:44:40.904Z,19.70
2019-04-05T16:47:13.786Z,19.80
2019-04-05T16:49:46.749Z,20.20
2019-04-05T16:52:17.816Z,18.30
2019-04-05T16:54:50.703Z,17.90
2019-04-05T16:57:23.132Z,16.37
2019-04-05T16:59:55.945Z,17.87
2019-04-05T17:02:26.775Z,16.27
2019-04-05T17:04:58.271Z,18.00
2019-04-05T17:07:29.833Z,17.07
2019-04-05T17:10:02.884Z,16.57
2019-04-05T17:12:35.717Z,18.80
2019-04-05T17:15:08.195Z,19.80
2019-04-05T17:17:40.753Z,20.03
2019-04-05T17:20:13.924Z,19.93
2019-04-05T17:22:57.439Z,20.20
2019-04-05T17:25:33.396Z,20.20
2019-04-05T17:28:03.797Z,19.43
2019-04-05T17:30:36.545Z,20.53
2019-04-05T17:33:07.370Z,22.33
2019-04-05T17:35:39.746Z,22.10
2019-04-05T17:38:12.948Z,25.03
2019-04-05T17:40:43.492Z,23.53
2019-04-05T17:43:15.422Z,21.93
2019-04-05T17:45:48.355Z,22.40
2019-04-05T17:48:19.773Z,21.53
2019-04-05T17:50:50.850Z,21.00
2019-04-05T17:53:22.478Z,22.37
2019-04-05T17:55:53.079Z,22.07
2019-04-05T17:58:25.477Z,20.57
2019-04-05T18:00:58.505Z,22.30
2019-04-05T18:03:29.925Z,21.37
2019-04-05T18:06:01.843Z,21.50
2019-04-05T18:08:33.416Z,21.97
2019-04-05T18:11:05.618Z,23.80
2019-04-05T18:13:37.475Z,25.30
2019-04-05T18:16:08.718Z,23.33
2019-04-05T18:18:39.562Z,23.27
2019-04-05T18:21:10.826Z,23.83
2019-04-05T18:23:42.720Z,23.87
2019-04-05T18:26:13.611Z,24.57
2019-04-05T18:28:44.440Z,25.60
2019-04-05T18:31:17.645Z,26.17
2019-04-05T18:33:48.301Z,25.50
2019-04-05T18:36:18.913Z,25.57
2019-04-05T18:38:49.600Z,24.93
2019-04-05T18:41:20.160Z,25.70
2019-04-05T18:43:50.616Z,26.57
2019-04-05T18:46:21.200Z,26.30
2019-04-05T18:48:51.662Z,25.97
2019-04-05T18:51:22.075Z,25.00
2019-04-05T18:53:52.731Z,25.70
2019-04-05T18:56:23.516Z,25.00
2019-04-05T18:58:53.898Z,24.23
2019-04-05T19:01:24.559Z,26.53
2019-04-05T19:03:55.025Z,24.23
2019-04-05T19:06:25.684Z,25.83
2019-04-05T19:08:56.452Z,23.73
2019-04-05T19:11:28.492Z,23.50
2019-04-05T19:14:01.341Z,25.27
2019-04-05T19:16:33.931Z,23.63
2019-04-05T19:19:06.813Z,24.13
2019-04-05T19:21:38.181Z,24.13
2019-04-05T19:24:10.878Z,25.07
2019-04-05T19:26:41.953Z,24.47
2019-04-05T19:29:13.925Z,25.57
2019-04-05T19:49:38.074Z,27.50
2019-04-05T19:52:10.998Z,26.97
2019-04-05T19:54:41.931Z,27.43
2019-04-05T19:57:15.120Z,26.70
2019-04-05T19:59:45.595Z,26.23
2019-04-05T20:02:16.326Z,28.83
2019-04-05T20:04:48.057Z,28.40
2019-04-05T20:07:20.137Z,26.40
2019-04-05T20:09:51.014Z,28.70
2019-04-05T20:12:22.414Z,28.40
2019-04-05T20:14:54.124Z,26.93
2019-04-05T20:17:26.125Z,29.50
2019-04-05T20:19:56.808Z,29.50
2019-04-05T20:22:27.242Z,27.07
2019-04-05T20:24:57.714Z,27.57
2019-04-05T20:27:28.195Z,27.53
2019-04-05T20:29:58.974Z,27.40
2019-04-05T20:32:29.392Z,29.07
2019-04-05T20:35:00.004Z,28.57
2019-04-05T20:37:30.670Z,28.13
2019-04-05T20:40:01.265Z,29.27
2019-04-05T20:42:31.695Z,30.93
2019-04-05T20:45:03.265Z,29.50
2019-04-05T20:47:35.038Z,28.77
2019-04-05T20:50:06.852Z,28.60
2019-04-05T20:52:38.179Z,31.20
2019-04-05T20:55:11.260Z,31.03
2019-04-05T20:57:43.497Z,30.87
2019-04-05T21:00:17.347Z,30.90
2019-04-05T21:02:48.343Z,30.70
2019-04-05T21:05:25.311Z,32.37
2019-04-05T21:07:53.039Z,32.57
2019-04-05T21:10:24.066Z,33.13
2019-04-05T21:12:55.372Z,31.63
2019-04-05T21:15:27.239Z,34.17
2019-04-05T21:17:58.015Z,32.87
2019-04-05T21:20:29.335Z,32.97
2019-04-05T21:22:59.861Z,35.40
2019-04-05T21:25:31.420Z,38.60
2019-04-05T21:28:02.426Z,39.17
2019-04-05T21:30:35.488Z,37.00
2019-04-05T21:33:08.791Z,37.23
2019-04-05T21:35:39.459Z,38.13
2019-04-05T21:38:10.396Z,37.77
2019-04-05T21:40:41.819Z,38.50
2019-04-05T21:43:14.487Z,37.17
2019-04-05T21:45:44.939Z,36.87
2019-04-05T21:48:16.271Z,38.37
2019-04-05T21:50:48.322Z,38.83
2019-04-05T21:53:19.663Z,39.87
2019-04-05T21:55:50.539Z,39.73
2019-04-05T21:58:23.201Z,40.43
2019-04-05T22:01:01.460Z,41.33
2019-04-05T22:03:34.501Z,39.60
2019-04-05T22:06:05.405Z,39.93
2019-04-05T22:08:35.991Z,41.03
2019-04-05T22:11:06.427Z,41.43
2019-04-05T22:13:36.794Z,39.47
2019-04-05T22:16:07.273Z,39.77
2019-04-05T22:18:37.720Z,37.57
2019-04-05T22:21:08.463Z,41.00
2019-04-05T22:23:39.062Z,41.47
2019-04-05T22:26:09.559Z,39.57
2019-04-05T22:28:40.304Z,40.60
2019-04-05T22:31:10.709Z,39.80
2019-04-05T22:33:41.098Z,39.83
2019-04-05T22:36:11.626Z,42.73
2019-04-05T22:38:43.881Z,40.97
2019-04-05T22:41:15.647Z,45.70
2019-04-05T22:43:50.648Z,47.03
2019-04-05T22:46:22.770Z,44.07
2019-04-05T22:48:54.840Z,46.07
2019-04-05T22:51:25.848Z,49.07
2019-04-05T22:53:58.026Z,48.93
2019-04-05T22:56:30.962Z,47.67
2019-04-05T22:59:01.828Z,45.27
2019-04-05T23:01:32.468Z,48.30
2019-04-05T23:04:03.146Z,45.73
2019-04-05T23:06:33.762Z,44.30
2019-04-05T23:09:06.616Z,43.30
2019-04-05T23:11:37.939Z,47.10
2019-04-05T23:14:11.340Z,42.20
2019-04-05T23:16:41.795Z,37.30
2019-04-05T23:19:13.173Z,33.50
2019-04-05T23:21:45.065Z,29.03
2019-04-05T23:24:16.974Z,24.70
2019-04-05T23:26:48.921Z,20.13
2019-04-05T23:29:19.889Z,17.97
2019-04-05T23:31:52.032Z,16.13
2019-04-05T23:34:23.997Z,14.00
2019-04-05T23:36:54.982Z,10.47
2019-04-05T23:39:26.113Z,8.93
2019-04-05T23:41:56.806Z,6.97
2019-04-05T23:44:27.506Z,6.10
2019-04-05T23:46:59.661Z,7.10
2019-04-05T23:49:32.760Z,6.73
2019-04-05T23:52:04.984Z,8.17
2019-04-05T23:54:36.002Z,8.80
2019-04-05T23:57:09.162Z,9.57
2019-04-05T23:59:41.531Z,9.13
